Aérodrome :
LOGIN :

S'inscrire | Disclaimer

   EN    FR    IT 

 










Légende :    VFR   VFR Marginal   IFR   IFR Intensif   IFR Très Intensif
Visi : 
Plafond : 
>= 8 km
>= 3000ft
5 à 8 km
1000 à 3000 ft
1500m à 5 km
500 à 1000 ft
800 à 1500m
200 à 500 ft
< 800m
< 200 ft
Symboles :   Orages  Brouillard  Fortes neiges  Fortes précipitations  Vent > 20 kt
SIGMETs :   Divers  Orages  Givrage  Turbulence  Onde Orograph.  Cendres Volcan.






- Altitude de l'aérodrome : 7 ft
- Code IATA : XHE


LFTH - Hyeres

DERNIER METAR :
  • 251230Z AUTO 10011KT CAVOK 16/07 Q1021 NOSIG

METARs EXPIRÉS :
  • 251200Z AUTO 08010KT CAVOK 16/07 Q1021 NOSIG
  • 251130Z AUTO 08010KT CAVOK 16/08 Q1021 NOSIG
  • 251100Z AUTO 08010KT 050V120 CAVOK 16/08 Q1021 NOSIG
  • 251030Z AUTO 06007KT 030V090 CAVOK 15/08 Q1022 NOSIG
  • 251000Z AUTO 02004KT 350V060 CAVOK 14/08 Q1022 NOSIG

TAF TAF LFTH
Valide du 25 à 09h jusqu'au 26 à 09h UTC


250800Z 2509/2609 35005KT CAVOK
BECMG 2511/2513 09010G20KT
BECMG 2520/2522 35010KT 9999 BKN015



MET'MAP, la Météo Aéronautique d'un coup d'oeil ! - Copyright ORBIFLY Décembre 2007 - Disclaimer

ORBIFLY MET'MAP TEAM :

Programmation & Développement : Alexandra Zaïnal
Sur une idée originale de : Baudouin d'Aumeries
Assistance à la programmation : Marc-Olivier Méhu
Soutien technique & logistique : Manuel Goepfert

Contact : metmap@orbifly.com




SOURCES & CREDITS :

   NOAA